createdAt,value
2023-01-23T00:00:04.723Z,8.23
2023-01-23T00:02:33.988Z,8.23
2023-01-23T00:05:01.824Z,8.21
2023-01-23T00:07:29.758Z,8.20
2023-01-23T00:09:57.663Z,8.18
2023-01-23T00:12:25.687Z,8.14
2023-01-23T00:14:53.541Z,8.10
2023-01-23T00:17:21.428Z,8.08
2023-01-23T00:19:50.681Z,8.07
2023-01-23T00:22:18.625Z,8.05
2023-01-23T00:24:46.551Z,8.04
2023-01-23T00:27:14.414Z,8.06
2023-01-23T00:29:42.272Z,8.04
2023-01-23T00:32:10.141Z,8.06
2023-01-23T00:34:38.763Z,8.09
2023-01-23T00:37:08.091Z,8.13
2023-01-23T00:39:36.206Z,8.15
2023-01-23T00:42:04.111Z,8.17
2023-01-23T00:44:32.052Z,8.19
2023-01-23T00:46:59.881Z,8.19
2023-01-23T00:49:27.747Z,8.19
2023-01-23T00:51:56.482Z,8.19
2023-01-23T00:54:26.346Z,8.18
2023-01-23T00:56:54.228Z,8.15
2023-01-23T00:59:22.123Z,8.15
2023-01-23T01:01:50.069Z,8.12
2023-01-23T01:04:17.981Z,8.15
2023-01-23T01:06:45.878Z,8.10
2023-01-23T01:09:13.762Z,8.06
2023-01-23T01:11:42.984Z,8.03
2023-01-23T01:14:10.831Z,7.99
2023-01-23T01:16:40.903Z,8.05
2023-01-23T01:19:08.787Z,8.08
2023-01-23T01:21:37.011Z,8.09
2023-01-23T01:24:05.053Z,8.15
2023-01-23T01:26:32.945Z,8.21
2023-01-23T01:29:02.234Z,8.24
2023-01-23T01:31:30.178Z,8.22
2023-01-23T01:33:58.079Z,8.21
2023-01-23T01:36:27.083Z,8.21
2023-01-23T01:38:54.943Z,8.15
2023-01-23T01:41:22.823Z,8.07
2023-01-23T01:43:51.202Z,8.02
2023-01-23T01:46:22.124Z,7.97
2023-01-23T01:48:53.605Z,7.91
2023-01-23T01:51:26.070Z,7.86
2023-01-23T01:53:58.169Z,7.82
2023-01-23T01:56:26.035Z,7.80
2023-01-23T01:58:53.900Z,7.78
2023-01-23T02:01:23.185Z,7.75
2023-01-23T02:03:51.247Z,7.70
2023-01-23T02:06:19.362Z,7.62
2023-01-23T02:08:50.305Z,7.60
2023-01-23T02:11:18.608Z,7.55
2023-01-23T02:13:46.486Z,7.53
2023-01-23T02:16:15.486Z,7.49
2023-01-23T02:18:47.256Z,7.41
2023-01-23T02:21:15.873Z,7.43
2023-01-23T02:23:49.002Z,7.40
2023-01-23T02:26:19.588Z,7.39
2023-01-23T02:28:48.295Z,7.36
2023-01-23T02:31:16.299Z,7.38
2023-01-23T02:33:46.617Z,7.35
2023-01-23T02:36:14.560Z,7.29
2023-01-23T02:38:46.612Z,7.25
2023-01-23T02:41:14.467Z,7.20
2023-01-23T02:43:43.776Z,7.22
2023-01-23T02:46:12.523Z,7.24
2023-01-23T02:48:41.085Z,7.20
2023-01-23T02:51:09.013Z,7.28
2023-01-23T02:53:36.932Z,7.30
2023-01-23T02:56:05.009Z,7.31
2023-01-23T02:58:50.194Z,7.29
2023-01-23T03:01:19.542Z,7.27
2023-01-23T03:03:47.434Z,7.26
2023-01-23T03:06:15.361Z,7.24
2023-01-23T03:08:47.774Z,7.24
2023-01-23T03:11:16.409Z,7.24
2023-01-23T03:13:45.005Z,7.21
2023-01-23T03:16:13.094Z,7.18
2023-01-23T03:18:53.564Z,7.16
2023-01-23T03:21:22.313Z,7.14
2023-01-23T03:23:50.344Z,7.13
2023-01-23T03:26:18.209Z,7.16
2023-01-23T03:29:03.637Z,7.17
2023-01-23T03:31:31.558Z,7.13
2023-01-23T03:34:00.996Z,7.13
2023-01-23T03:36:28.989Z,7.09
2023-01-23T03:39:14.500Z,7.03
2023-01-23T03:41:45.733Z,6.98
2023-01-23T03:44:13.900Z,6.99
2023-01-23T03:46:41.793Z,6.93
2023-01-23T03:49:11.063Z,6.88
2023-01-23T03:51:38.962Z,6.85
2023-01-23T03:54:06.938Z,6.70
2023-01-23T03:56:34.835Z,6.84
2023-01-23T03:59:02.691Z,6.85
2023-01-23T04:01:30.581Z,6.89
2023-01-23T04:03:58.453Z,6.90
2023-01-23T04:06:28.652Z,6.94
2023-01-23T04:08:57.229Z,6.96
2023-01-23T04:11:26.438Z,7.02
2023-01-23T04:13:54.404Z,7.08
2023-01-23T04:16:22.812Z,7.09
2023-01-23T04:18:50.753Z,7.11
2023-01-23T04:21:18.718Z,7.14
2023-01-23T04:23:47.934Z,7.18
2023-01-23T04:26:15.841Z,7.18
2023-01-23T04:28:43.740Z,7.14
2023-01-23T04:31:11.703Z,7.09
2023-01-23T04:33:39.647Z,7.02
2023-01-23T04:36:08.499Z,7.00
2023-01-23T04:38:36.343Z,6.96
2023-01-23T04:41:05.888Z,6.92
2023-01-23T04:43:33.784Z,6.89
2023-01-23T04:46:01.723Z,6.89
2023-01-23T04:48:29.587Z,6.87
2023-01-23T04:50:57.511Z,6.90
2023-01-23T04:53:25.481Z,6.96
2023-01-23T04:55:53.367Z,7.02
2023-01-23T04:58:22.656Z,7.06
2023-01-23T05:00:50.568Z,7.07
2023-01-23T05:03:18.506Z,7.03
2023-01-23T05:05:46.983Z,6.99
2023-01-23T05:08:14.935Z,6.91
2023-01-23T05:10:42.795Z,6.81
2023-01-23T05:13:10.760Z,6.74
2023-01-23T05:15:40.046Z,6.74
2023-01-23T05:18:07.923Z,6.77
2023-01-23T05:20:35.818Z,6.78
2023-01-23T05:23:03.719Z,6.73
2023-01-23T05:25:31.573Z,6.61
2023-01-23T05:27:59.947Z,6.53
2023-01-23T05:30:27.857Z,6.46
2023-01-23T05:32:57.136Z,6.39
2023-01-23T05:35:25.035Z,6.36
2023-01-23T05:37:52.910Z,6.36
2023-01-23T05:40:21.965Z,6.37
2023-01-23T05:42:50.050Z,6.34
2023-01-23T05:45:18.099Z,6.27
2023-01-23T05:47:46.063Z,6.28
2023-01-23T05:50:17.121Z,6.30
2023-01-23T05:52:45.102Z,6.31
2023-01-23T05:55:13.125Z,6.33
2023-01-23T05:57:40.981Z,6.37
2023-01-23T06:00:09.945Z,6.40
2023-01-23T06:02:37.874Z,6.39
2023-01-23T06:05:06.520Z,6.41
2023-01-23T06:07:35.782Z,6.45
2023-01-23T06:10:03.626Z,6.44
2023-01-23T06:12:31.508Z,6.47
2023-01-23T06:14:59.343Z,6.48
2023-01-23T06:17:27.262Z,6.50
2023-01-23T06:19:55.149Z,6.52
2023-01-23T06:22:23.322Z,6.47
2023-01-23T06:24:53.508Z,6.46
2023-01-23T06:27:21.405Z,6.43
2023-01-23T06:29:49.419Z,6.43
2023-01-23T06:32:17.340Z,6.41
2023-01-23T06:34:45.224Z,6.39
2023-01-23T06:37:13.069Z,6.38
2023-01-23T06:39:41.140Z,6.38
2023-01-23T06:42:10.862Z,6.40
2023-01-23T06:44:38.773Z,6.38
2023-01-23T06:47:06.692Z,6.37
2023-01-23T06:49:34.808Z,6.36
2023-01-23T06:52:02.688Z,6.38
2023-01-23T06:54:30.556Z,6.40
2023-01-23T06:56:58.445Z,6.42
2023-01-23T06:59:27.716Z,6.43
2023-01-23T07:01:55.687Z,6.44
2023-01-23T07:04:23.669Z,6.46
2023-01-23T07:06:51.624Z,6.49
2023-01-23T07:09:19.517Z,6.55
2023-01-23T07:11:47.472Z,6.56
2023-01-23T07:14:15.325Z,6.58
2023-01-23T07:16:44.562Z,6.61
2023-01-23T07:19:12.634Z,6.60
2023-01-23T07:21:40.553Z,6.63
2023-01-23T07:24:08.596Z,6.71
2023-01-23T07:26:36.509Z,6.75
2023-01-23T07:29:04.980Z,6.77
2023-01-23T07:31:32.878Z,6.78
2023-01-23T07:34:02.777Z,6.82
2023-01-23T07:36:30.748Z,6.88
2023-01-23T07:38:59.405Z,6.91
2023-01-23T07:41:27.333Z,6.96
2023-01-23T07:43:55.255Z,6.98
2023-01-23T07:46:23.817Z,6.99
2023-01-23T07:48:51.792Z,7.03
2023-01-23T07:51:21.988Z,7.04
2023-01-23T07:53:49.892Z,7.04
2023-01-23T07:56:17.743Z,7.07
2023-01-23T07:58:45.599Z,7.09
2023-01-23T08:01:13.563Z,7.11
2023-01-23T08:03:41.525Z,7.15
2023-01-23T08:06:09.609Z,7.18
2023-01-23T08:08:38.986Z,7.23
2023-01-23T08:11:07.256Z,7.28
2023-01-23T08:13:35.123Z,7.30
2023-01-23T08:16:03.053Z,7.35
2023-01-23T08:18:31.175Z,7.37
2023-01-23T08:20:59.681Z,7.35
2023-01-23T08:23:27.770Z,7.36
2023-01-23T08:25:57.443Z,7.36
2023-01-23T08:28:25.512Z,7.36
2023-01-23T08:30:53.498Z,7.39
2023-01-23T08:33:21.802Z,7.40
2023-01-23T08:35:50.669Z,7.40
2023-01-23T08:38:19.341Z,7.39
2023-01-23T08:40:49.781Z,7.41
2023-01-23T08:43:19.632Z,7.46
2023-01-23T08:45:50.108Z,7.50
2023-01-23T08:48:18.115Z,7.54
2023-01-23T08:50:46.162Z,7.59
2023-01-23T08:53:14.216Z,7.64
2023-01-23T08:55:42.382Z,7.66
2023-01-23T08:58:13.190Z,7.70
2023-01-23T09:00:42.892Z,7.74
2023-01-23T09:03:11.548Z,7.79
2023-01-23T09:05:39.621Z,7.83
2023-01-23T09:08:07.530Z,7.86
2023-01-23T09:10:36.408Z,7.89
2023-01-23T09:13:04.352Z,7.93
2023-01-23T09:15:32.465Z,8.01
2023-01-23T09:18:01.730Z,8.08
2023-01-23T09:20:29.691Z,8.15
2023-01-23T09:22:57.608Z,8.27
2023-01-23T09:25:25.463Z,8.33
2023-01-23T09:27:53.342Z,8.43
2023-01-23T09:30:21.762Z,8.55
2023-01-23T09:32:49.892Z,8.72
2023-01-23T09:35:19.178Z,8.87
2023-01-23T09:38:02.339Z,9.01
2023-01-23T09:40:31.652Z,9.13
2023-01-23T09:43:01.579Z,9.25
2023-01-23T09:45:29.462Z,9.37
2023-01-23T09:48:00.297Z,9.49
2023-01-23T09:50:30.775Z,9.62
2023-01-23T09:53:00.916Z,9.74
2023-01-23T09:55:34.799Z,9.84
2023-01-23T09:58:03.518Z,9.98
2023-01-23T10:00:32.138Z,10.12
2023-01-23T10:03:01.260Z,10.24
2023-01-23T10:05:32.999Z,10.36
2023-01-23T10:08:06.626Z,10.49
2023-01-23T10:10:44.336Z,10.57
2023-01-23T10:13:16.510Z,10.66
2023-01-23T10:16:01.442Z,10.72
2023-01-23T10:18:31.736Z,10.67
2023-01-23T10:21:07.039Z,10.66
2023-01-23T10:23:43.071Z,10.64
2023-01-23T10:26:14.202Z,10.61
2023-01-23T10:28:42.134Z,10.56
2023-01-23T10:31:12.464Z,10.52
2023-01-23T10:33:43.466Z,10.54
2023-01-23T10:36:23.621Z,10.54
2023-01-23T10:38:57.943Z,10.59
2023-01-23T10:41:25.947Z,10.62
2023-01-23T10:43:54.919Z,10.69
2023-01-23T10:46:23.997Z,10.74
2023-01-23T10:48:52.240Z,10.82
2023-01-23T10:51:35.451Z,10.92
2023-01-23T10:54:08.481Z,11.17
2023-01-23T10:56:37.618Z,11.48
2023-01-23T10:59:06.528Z,11.67
2023-01-23T11:01:35.248Z,11.22
2023-01-23T11:04:11.327Z,11.36
2023-01-23T11:06:40.611Z,11.75
2023-01-23T11:09:19.852Z,12.25
2023-01-23T11:12:05.635Z,12.77
2023-01-23T11:14:33.608Z,13.12
2023-01-23T11:17:06.897Z,13.29
2023-01-23T11:19:34.812Z,13.50
2023-01-23T11:22:04.144Z,13.69
2023-01-23T11:24:40.170Z,13.90
2023-01-23T11:27:18.536Z,14.01
2023-01-23T11:29:55.055Z,14.28
2023-01-23T11:32:23.097Z,14.39
2023-01-23T11:34:53.033Z,14.46
2023-01-23T11:37:23.777Z,14.59
2023-01-23T11:39:54.057Z,14.62
2023-01-23T11:42:21.970Z,14.63
2023-01-23T11:44:51.232Z,14.60
2023-01-23T11:47:32.858Z,14.63
2023-01-23T11:50:30.144Z,14.77
2023-01-23T11:53:03.505Z,14.89
2023-01-23T11:55:53.361Z,15.01
2023-01-23T11:58:49.040Z,15.10
2023-01-23T12:01:20.201Z,14.86
2023-01-23T12:04:29.582Z,14.42
2023-01-23T12:07:21.669Z,14.66
2023-01-23T12:09:56.317Z,14.95
2023-01-23T12:12:30.490Z,15.24
2023-01-23T12:15:07.358Z,15.56
2023-01-23T12:17:40.397Z,15.84
2023-01-23T12:20:32.461Z,16.15
2023-01-23T12:23:16.745Z,16.33
2023-01-23T12:25:48.072Z,16.21
2023-01-23T12:28:25.055Z,16.15
2023-01-23T12:31:22.176Z,16.15
2023-01-23T12:33:57.501Z,15.80
2023-01-23T12:36:59.515Z,15.38
2023-01-23T12:39:53.403Z,14.93
2023-01-23T12:42:23.319Z,14.59
2023-01-23T12:44:57.477Z,14.38
2023-01-23T12:47:26.434Z,14.17
2023-01-23T12:49:56.630Z,13.98
2023-01-23T12:52:25.789Z,13.79
2023-01-23T12:54:57.039Z,13.72
2023-01-23T13:00:26.728Z,13.59
2023-01-23T13:02:58.334Z,13.53
2023-01-23T13:05:28.692Z,13.48
2023-01-23T13:07:58.080Z,13.49
2023-01-23T13:10:51.296Z,13.42
2023-01-23T13:13:19.315Z,13.35
2023-01-23T13:16:02.695Z,13.30
2023-01-23T13:18:50.599Z,13.21
2023-01-23T13:21:35.763Z,13.13
2023-01-23T13:24:38.392Z,13.07
2023-01-23T13:27:36.814Z,13.06
2023-01-23T13:30:06.672Z,13.06
2023-01-23T13:32:35.997Z,13.06
2023-01-23T13:35:03.921Z,13.04
2023-01-23T13:37:51.437Z,13.02
2023-01-23T13:40:21.614Z,13.04
2023-01-23T13:42:49.512Z,13.07
2023-01-23T13:45:27.056Z,13.07
2023-01-23T14:22:21.910Z,13.12
2023-01-23T14:24:52.194Z,13.12
2023-01-23T14:27:21.970Z,13.14
2023-01-23T14:29:57.341Z,13.15
2023-01-23T14:32:25.358Z,13.14
2023-01-23T14:34:53.282Z,13.15
2023-01-23T14:37:21.158Z,13.15
2023-01-23T14:39:53.056Z,13.15
2023-01-23T14:42:24.522Z,13.16
2023-01-23T14:44:52.401Z,13.12
2023-01-23T14:47:24.567Z,13.15
2023-01-23T14:49:52.932Z,13.14
2023-01-23T14:52:23.311Z,13.12
2023-01-23T14:54:54.175Z,13.08
2023-01-23T14:57:24.912Z,13.06
2023-01-23T14:59:54.323Z,13.02
2023-01-23T15:02:27.206Z,13.00
2023-01-23T15:05:11.777Z,13.00
2023-01-23T15:07:44.073Z,12.99
2023-01-23T15:10:16.116Z,13.00
2023-01-23T15:12:51.479Z,12.97
2023-01-23T15:15:22.991Z,12.94
2023-01-23T15:17:51.231Z,12.91
2023-01-23T15:20:35.510Z,12.89
2023-01-23T15:23:28.443Z,12.89
2023-01-23T15:26:13.636Z,12.89
2023-01-23T15:28:49.316Z,12.89
2023-01-23T15:31:27.952Z,12.95
2023-01-23T15:33:55.932Z,12.96
2023-01-23T15:36:27.975Z,12.97
2023-01-23T15:38:56.201Z,12.98
2023-01-23T15:41:39.403Z,12.97
2023-01-23T15:44:14.094Z,12.98
2023-01-23T15:46:42.143Z,12.97
2023-01-23T15:49:23.637Z,12.91
2023-01-23T15:51:53.127Z,12.93
2023-01-23T15:54:26.032Z,12.91
2023-01-23T15:57:06.639Z,12.87
2023-01-23T15:59:36.709Z,12.81
2023-01-23T16:02:04.710Z,12.75
2023-01-23T16:04:32.614Z,12.70
2023-01-23T16:07:01.258Z,12.66
2023-01-23T16:09:30.847Z,12.59
2023-01-23T16:11:58.902Z,12.53
2023-01-23T16:14:26.827Z,12.45
2023-01-23T16:16:58.234Z,12.38
2023-01-23T16:19:32.534Z,12.28
2023-01-23T16:22:05.306Z,12.16
2023-01-23T16:24:35.121Z,12.10
2023-01-23T16:27:03.139Z,12.00
2023-01-23T16:29:31.742Z,11.88
2023-01-23T16:32:01.925Z,11.78
2023-01-23T16:34:29.933Z,11.63
2023-01-23T16:36:58.390Z,11.48
2023-01-23T16:39:27.839Z,11.23
2023-01-23T16:41:55.959Z,11.24
2023-01-23T16:44:24.851Z,11.11
2023-01-23T16:46:53.322Z,11.01
2023-01-23T16:49:22.589Z,10.92
2023-01-23T16:51:55.687Z,10.83
2023-01-23T16:54:23.595Z,10.58
2023-01-23T16:56:52.812Z,10.65
2023-01-23T16:59:21.987Z,10.55
2023-01-23T17:01:51.025Z,10.46
2023-01-23T17:04:20.275Z,10.37
2023-01-23T17:06:49.862Z,10.31
2023-01-23T17:09:17.888Z,10.25
2023-01-23T17:11:46.939Z,10.20
2023-01-23T17:14:16.554Z,10.14
2023-01-23T17:16:44.533Z,10.07
2023-01-23T17:19:27.866Z,10.00
2023-01-23T17:21:57.288Z,9.92
2023-01-23T17:24:25.127Z,9.84
2023-01-23T17:26:53.003Z,9.77
2023-01-23T17:29:21.021Z,9.71
2023-01-23T17:31:49.121Z,9.65
2023-01-23T17:34:21.125Z,9.59
2023-01-23T17:36:49.016Z,9.52
2023-01-23T17:39:19.465Z,9.50
2023-01-23T17:41:48.419Z,9.46
2023-01-23T17:44:16.316Z,9.41
2023-01-23T17:46:44.494Z,9.37
2023-01-23T17:49:25.509Z,9.33
2023-01-23T17:51:53.463Z,9.27
2023-01-23T17:54:22.776Z,9.25
2023-01-23T17:56:50.698Z,9.22
2023-01-23T17:59:18.654Z,9.21
2023-01-23T18:01:47.690Z,9.20
2023-01-23T18:04:16.758Z,9.20
2023-01-23T18:06:44.700Z,9.17
2023-01-23T18:09:12.579Z,9.16
2023-01-23T18:11:43.392Z,9.14
2023-01-23T18:14:26.634Z,9.14
2023-01-23T18:16:55.528Z,8.97
2023-01-23T18:19:24.487Z,9.11
2023-01-23T18:21:53.849Z,9.09
2023-01-23T18:24:26.419Z,9.08
2023-01-23T18:27:00.462Z,9.05
2023-01-23T18:29:35.300Z,8.97
2023-01-23T18:32:15.136Z,8.83
2023-01-23T18:34:44.887Z,8.73
2023-01-23T18:37:17.328Z,8.73
2023-01-23T18:40:05.675Z,8.67
2023-01-23T18:42:38.392Z,8.62
2023-01-23T18:45:10.396Z,8.65
2023-01-23T18:47:38.876Z,8.64
2023-01-23T18:50:08.409Z,8.63
2023-01-23T18:52:45.797Z,8.62
2023-01-23T18:55:18.725Z,8.53
2023-01-23T18:58:09.880Z,8.45
2023-01-23T19:00:40.866Z,8.36
2023-01-23T19:03:13.367Z,8.33
2023-01-23T19:05:41.423Z,8.26
2023-01-23T19:08:15.859Z,8.24
2023-01-23T19:10:48.580Z,8.19
2023-01-23T19:13:21.396Z,8.20
2023-01-23T19:15:56.820Z,8.21
2023-01-23T19:18:48.920Z,8.04
2023-01-23T19:21:20.615Z,8.21
2023-01-23T19:23:54.454Z,8.22
2023-01-23T19:26:22.881Z,8.23
2023-01-23T19:28:52.763Z,8.21
2023-01-23T19:31:22.530Z,8.15
2023-01-23T19:33:50.875Z,8.07
2023-01-23T19:36:18.877Z,7.99
2023-01-23T19:38:46.909Z,7.92
2023-01-23T19:41:19.685Z,7.89
2023-01-23T19:43:49.267Z,7.83
2023-01-23T19:46:18.767Z,7.79
2023-01-23T19:48:47.035Z,7.75
2023-01-23T19:51:16.540Z,7.73
2023-01-23T19:53:44.490Z,7.73
2023-01-23T19:56:12.795Z,7.76
2023-01-23T19:58:41.450Z,7.72
2023-01-23T20:01:18.925Z,7.69
2023-01-23T20:03:46.881Z,7.62
2023-01-23T20:06:14.796Z,7.57
2023-01-23T20:08:42.613Z,7.53
2023-01-23T20:11:11.212Z,7.48
2023-01-23T20:13:40.858Z,7.44
2023-01-23T20:16:10.185Z,7.40
2023-01-23T20:18:39.487Z,7.37
2023-01-23T20:21:07.401Z,7.32
2023-01-23T20:23:35.289Z,7.33
2023-01-23T20:26:03.776Z,7.32
2023-01-23T20:28:31.678Z,7.35
2023-01-23T20:31:04.732Z,7.38
2023-01-23T20:33:32.645Z,7.40
2023-01-23T20:36:01.939Z,7.35
2023-01-23T20:38:29.873Z,7.28
2023-01-23T20:41:03.555Z,7.24
2023-01-23T20:43:31.453Z,7.21
2023-01-23T20:45:59.407Z,7.16
2023-01-23T20:48:27.291Z,7.10
2023-01-23T20:50:56.066Z,7.03
2023-01-23T20:53:30.155Z,7.01
2023-01-23T20:55:58.629Z,7.01
2023-01-23T20:58:44.049Z,6.99
2023-01-23T21:01:12.155Z,6.94
2023-01-23T21:03:40.619Z,6.91
2023-01-23T21:06:08.706Z,6.89
2023-01-23T21:08:37.944Z,6.91
2023-01-23T21:11:07.138Z,6.90
2023-01-23T21:13:35.327Z,6.89
2023-01-23T21:16:04.594Z,6.90
2023-01-23T21:18:32.637Z,6.91
2023-01-23T21:21:04.185Z,6.89
2023-01-23T21:23:32.083Z,6.83
2023-01-23T21:26:01.595Z,6.76
2023-01-23T21:28:30.052Z,6.68
2023-01-23T21:30:58.056Z,6.61
2023-01-23T21:33:26.212Z,6.55
2023-01-23T21:35:54.860Z,6.47
2023-01-23T21:38:22.954Z,6.43
2023-01-23T21:40:51.778Z,6.40
2023-01-23T21:43:21.101Z,6.39
2023-01-23T21:45:49.131Z,6.39
2023-01-23T21:48:16.979Z,6.36
2023-01-23T21:50:44.828Z,6.37
2023-01-23T21:53:12.752Z,6.36
2023-01-23T21:55:40.615Z,6.35
2023-01-23T21:58:08.505Z,6.37
2023-01-23T22:00:55.031Z,6.37
2023-01-23T22:03:23.317Z,6.37
2023-01-23T22:05:51.239Z,6.38
2023-01-23T22:08:19.337Z,6.38
2023-01-23T22:10:47.220Z,6.41
2023-01-23T22:13:15.140Z,6.38
2023-01-23T22:15:44.466Z,6.33
2023-01-23T22:18:12.421Z,6.28
2023-01-23T22:20:40.278Z,6.29
2023-01-23T22:23:08.166Z,6.32
2023-01-23T22:25:36.080Z,6.34
2023-01-23T22:28:03.982Z,6.36
2023-01-23T22:30:31.877Z,6.36
2023-01-23T22:33:01.223Z,6.36
2023-01-23T22:35:29.116Z,6.31
2023-01-23T22:37:57.010Z,6.29
2023-01-23T22:40:24.929Z,6.31
2023-01-23T22:42:52.819Z,6.32
2023-01-23T22:45:21.020Z,6.37
2023-01-23T22:47:49.005Z,6.40
2023-01-23T22:50:18.766Z,6.39
2023-01-23T22:52:46.769Z,6.36
2023-01-23T22:55:15.562Z,6.33
2023-01-23T22:57:43.591Z,6.29
2023-01-23T23:00:13.404Z,6.26
2023-01-23T23:02:41.296Z,6.19
2023-01-23T23:05:09.605Z,6.12
2023-01-23T23:07:38.872Z,6.13
2023-01-23T23:10:07.388Z,6.13
2023-01-23T23:12:35.335Z,6.09
2023-01-23T23:15:03.878Z,6.04
2023-01-23T23:17:31.878Z,5.98
2023-01-23T23:19:59.848Z,5.90
2023-01-23T23:22:27.741Z,5.85
2023-01-23T23:24:56.982Z,5.82
2023-01-23T23:27:24.920Z,5.79
2023-01-23T23:29:52.783Z,5.78
2023-01-23T23:32:20.930Z,5.75
2023-01-23T23:34:48.924Z,5.73
2023-01-23T23:37:16.783Z,5.74
2023-01-23T23:39:44.735Z,5.78
2023-01-23T23:42:13.976Z,5.77
2023-01-23T23:44:42.458Z,5.80
2023-01-23T23:47:10.279Z,5.89
2023-01-23T23:49:38.183Z,5.89
2023-01-23T23:52:06.104Z,5.98
2023-01-23T23:54:33.969Z,5.99
2023-01-23T23:57:01.865Z,5.95
2023-01-23T23:59:31.238Z,5.92
